KCEY/CEY METAR and TAF weather

Enter ICAO airport designator
Station Type Date Time Source
KCEY METAR 2020/01/22 15:35 UTC NOAA

KCEY 221535Z AUTO 15003KT 10SM CLR M02/M06 A3038 RMK AO1


Station Type Date Time Source
KCEY Decoded METAR 2020/01/22 15:35 UTC NOAA

Station name not available
Jan 22, 2020 - 10:35 AM EST / 2020.01.22 1535 UTC
Wind: from the SSE (150 degrees) at 3 MPH (3 KT):0
Visibility: 10 mile(s):0
Sky conditions: clear
Temperature: 28 F (-2 C)
Dew Point: 21 F (-6 C)
Relative Humidity: 74%
Pressure (altimeter): 30.38 in. Hg (1028 hPa)
ob: KCEY 221535Z AUTO 15003KT 10SM CLR M02/M06 A3038 RMK AO1
cycle: 15

Station Type Date Time Source
KCEY TAF UTC NOAA

Error!

Example: see airport list